createdAt,value
2022-10-13T00:01:16.034Z,99505.11
2022-10-13T00:03:47.090Z,99502.77
2022-10-13T00:06:23.940Z,99495.17
2022-10-13T00:08:52.138Z,99494.97
2022-10-13T00:11:23.876Z,99494.31
2022-10-13T00:13:52.159Z,99492.28
2022-10-13T00:16:21.685Z,99492.23
2022-10-13T00:18:50.358Z,99485.86
2022-10-13T00:21:21.074Z,99481.08
2022-10-13T00:23:51.320Z,99479.96
2022-10-13T00:26:21.692Z,99477.74
2022-10-13T00:28:52.542Z,99480.56
2022-10-13T00:31:24.267Z,99479.70
2022-10-13T00:33:52.597Z,99480.73
2022-10-13T00:36:22.311Z,99485.59
2022-10-13T00:38:50.994Z,99485.13
2022-10-13T00:41:18.266Z,99479.17
2022-10-13T00:43:58.517Z,99480.09
2022-10-13T00:46:37.259Z,99482.26
2022-10-13T00:49:14.309Z,99483.83
2022-10-13T00:51:48.706Z,99479.91
2022-10-13T00:54:25.002Z,99475.13
2022-10-13T00:56:53.985Z,99470.67
2022-10-13T00:59:27.054Z,99470.13
2022-10-13T01:01:57.357Z,99471.14
2022-10-13T01:04:28.576Z,99470.73
2022-10-13T01:06:56.746Z,99466.02
2022-10-13T01:09:23.801Z,99463.91
2022-10-13T01:12:11.369Z,99461.57
2022-10-13T01:15:09.835Z,99461.46
2022-10-13T01:17:56.168Z,99462.45
2022-10-13T01:20:51.639Z,99459.75
2022-10-13T01:23:41.782Z,99456.77
2022-10-13T01:26:27.732Z,99458.31
2022-10-13T01:29:04.242Z,99455.71
2022-10-13T01:31:47.945Z,99450.88
2022-10-13T01:34:44.623Z,99446.95
2022-10-13T01:37:26.283Z,99443.96
2022-10-13T01:40:02.669Z,99442.71
2022-10-13T01:42:39.756Z,99436.58
2022-10-13T01:45:17.380Z,99432.73
2022-10-13T01:47:47.294Z,99427.58
2022-10-13T01:50:18.785Z,99423.61
2022-10-13T01:52:47.856Z,99426.92
2022-10-13T01:55:15.292Z,99424.77
2022-10-13T01:57:45.072Z,99426.94
2022-10-13T02:00:14.629Z,99425.96
2022-10-13T02:03:00.729Z,99423.65
2022-10-13T02:05:34.120Z,99422.60
2022-10-13T02:08:25.948Z,99420.35
2022-10-13T02:11:25.132Z,99420.35
2022-10-13T02:14:04.469Z,99416.53
2022-10-13T02:16:38.583Z,99417.70
2022-10-13T02:19:09.034Z,99415.14
2022-10-13T02:21:37.342Z,99409.98
2022-10-13T02:24:05.891Z,99411.20
2022-10-13T02:26:35.397Z,99407.94
2022-10-13T02:29:16.892Z,99408.99
2022-10-13T02:31:46.387Z,99409.00
2022-10-13T02:34:14.463Z,99411.23
2022-10-13T02:36:42.226Z,99413.77
2022-10-13T02:39:11.021Z,99412.48
2022-10-13T02:41:39.150Z,99409.66
2022-10-13T02:44:06.545Z,99407.38
2022-10-13T02:46:35.641Z,99407.20
2022-10-13T02:49:03.083Z,99403.73
2022-10-13T02:51:30.767Z,99401.05
2022-10-13T02:53:58.429Z,99398.31
2022-10-13T02:56:25.729Z,99395.80
2022-10-13T02:58:53.342Z,99397.48
2022-10-13T03:01:21.085Z,99397.45
2022-10-13T03:03:48.816Z,99397.70
2022-10-13T03:06:15.916Z,99394.66
2022-10-13T03:08:43.786Z,99395.26
2022-10-13T03:11:11.444Z,99394.63
2022-10-13T03:13:38.683Z,99395.77
2022-10-13T03:16:07.586Z,99401.01
2022-10-13T03:18:35.104Z,99400.29
2022-10-13T03:21:05.152Z,99398.23
2022-10-13T03:23:33.135Z,99396.77
2022-10-13T03:26:01.425Z,99392.16
2022-10-13T03:28:28.731Z,99397.83
2022-10-13T03:31:08.007Z,99400.41
2022-10-13T03:33:35.758Z,99395.08
2022-10-13T03:36:05.380Z,99396.15
2022-10-13T03:38:35.604Z,99395.75
2022-10-13T03:41:07.046Z,99394.42
2022-10-13T03:43:35.309Z,99394.40
2022-10-13T03:46:04.738Z,99391.83
2022-10-13T03:48:34.443Z,99397.62
2022-10-13T03:51:07.229Z,99398.17
2022-10-13T03:53:34.889Z,99396.06
2022-10-13T03:56:03.577Z,99396.26
2022-10-13T03:58:34.926Z,99394.63
2022-10-13T04:01:05.482Z,99391.23
2022-10-13T04:03:34.459Z,99389.48
2022-10-13T04:06:03.627Z,99387.01
2022-10-13T04:08:32.740Z,99389.52
2022-10-13T04:11:05.751Z,99391.77
2022-10-13T04:13:34.193Z,99390.85
2022-10-13T04:16:23.900Z,99392.67
2022-10-13T04:18:56.345Z,99393.45
2022-10-13T04:21:25.257Z,99391.90
2022-10-13T04:23:57.422Z,99386.87
2022-10-13T04:26:27.138Z,99381.66
2022-10-13T04:28:55.470Z,99383.63
2022-10-13T04:31:23.394Z,99381.48
2022-10-13T04:33:51.573Z,99381.96
2022-10-13T04:36:19.428Z,99383.41
2022-10-13T04:38:47.276Z,99386.89
2022-10-13T04:41:16.343Z,99386.48
2022-10-13T04:43:46.730Z,99388.82
2022-10-13T04:46:20.039Z,99393.02
2022-10-13T04:48:50.007Z,99386.96
2022-10-13T04:51:20.636Z,99387.34
2022-10-13T04:53:48.107Z,99387.37
2022-10-13T04:56:17.907Z,99384.70
2022-10-13T04:58:46.342Z,99379.94
2022-10-13T05:01:21.362Z,99369.65
2022-10-13T05:03:54.027Z,99367.09
2022-10-13T05:06:27.534Z,99366.66
2022-10-13T05:08:58.257Z,99366.12
2022-10-13T05:11:27.877Z,99359.47
2022-10-13T05:13:56.352Z,99360.69
2022-10-13T05:16:25.339Z,99359.95
2022-10-13T05:18:54.631Z,99355.73
2022-10-13T05:21:28.249Z,99353.59
2022-10-13T05:23:57.857Z,99352.29
2022-10-13T05:26:28.593Z,99355.89
2022-10-13T05:28:57.079Z,99359.36
2022-10-13T05:31:27.191Z,99363.86
2022-10-13T05:33:55.562Z,99361.41
2022-10-13T05:36:41.389Z,99356.62
2022-10-13T05:39:10.066Z,99358.44
2022-10-13T05:41:38.949Z,99354.27
2022-10-13T05:44:09.091Z,99354.70
2022-10-13T05:46:40.789Z,99352.49
2022-10-13T05:49:08.259Z,99354.26
2022-10-13T05:51:38.844Z,99352.08
2022-10-13T05:54:41.872Z,99355.18
2022-10-13T05:57:15.496Z,99355.48
2022-10-13T05:59:49.240Z,99353.30
2022-10-13T06:02:19.053Z,99353.81
2022-10-13T06:04:50.382Z,99352.61
2022-10-13T06:07:17.900Z,99350.29
2022-10-13T06:09:45.768Z,99350.02
2022-10-13T06:12:13.330Z,99349.66
2022-10-13T06:14:42.451Z,99346.92
2022-10-13T06:17:12.705Z,99346.63
2022-10-13T06:19:45.037Z,99346.02
2022-10-13T06:22:12.410Z,99349.16
2022-10-13T06:24:39.825Z,99349.66
2022-10-13T06:27:10.794Z,99347.94
2022-10-13T06:29:38.259Z,99347.84
2022-10-13T06:32:06.336Z,99347.02
2022-10-13T06:34:35.242Z,99349.10
2022-10-13T06:37:02.673Z,99351.55
2022-10-13T06:39:30.237Z,99350.67
2022-10-13T06:42:00.894Z,99347.02
2022-10-13T06:44:32.249Z,99348.66
2022-10-13T06:47:05.088Z,99344.38
2022-10-13T06:49:33.165Z,99348.24
2022-10-13T06:52:00.332Z,99349.98
2022-10-13T06:54:27.735Z,99347.48
2022-10-13T06:56:55.210Z,99346.27
2022-10-13T06:59:24.748Z,99351.15
2022-10-13T07:01:53.163Z,99352.13
2022-10-13T07:04:22.849Z,99350.85
2022-10-13T07:06:51.339Z,99351.69
2022-10-13T07:09:19.773Z,99354.45
2022-10-13T07:11:47.691Z,99355.96
2022-10-13T07:14:15.361Z,99356.23
2022-10-13T07:16:43.115Z,99354.73
2022-10-13T07:19:10.268Z,99350.69
2022-10-13T07:21:39.345Z,99345.84
2022-10-13T07:24:07.513Z,99342.48
2022-10-13T07:26:35.099Z,99338.18
2022-10-13T07:29:02.823Z,99337.61
2022-10-13T07:31:30.680Z,99336.45
2022-10-13T07:34:00.035Z,99336.68
2022-10-13T07:36:28.578Z,99335.52
2022-10-13T07:38:56.347Z,99335.30
2022-10-13T07:41:24.307Z,99337.03
2022-10-13T07:43:57.897Z,99336.41
2022-10-13T07:46:26.030Z,99338.36
2022-10-13T07:48:53.632Z,99338.20
2022-10-13T07:51:22.021Z,99331.95
2022-10-13T07:54:00.571Z,99325.16
2022-10-13T07:56:36.024Z,99321.75
2022-10-13T07:59:22.244Z,99319.84
2022-10-13T08:01:52.477Z,99317.64
2022-10-13T08:04:20.387Z,99313.88
2022-10-13T08:06:56.589Z,99313.15
2022-10-13T08:09:56.513Z,99311.23
2022-10-13T08:12:41.661Z,99315.20
2022-10-13T08:15:17.053Z,99315.27
2022-10-13T08:17:44.355Z,99313.67
2022-10-13T08:20:11.890Z,99315.08
2022-10-13T08:22:39.059Z,99314.45
2022-10-13T08:25:07.126Z,99311.77
2022-10-13T08:27:50.674Z,99309.63
2022-10-13T08:30:22.330Z,99308.90
2022-10-13T08:32:52.181Z,99305.74
2022-10-13T08:35:19.303Z,99300.97
2022-10-13T08:37:52.517Z,99305.75
2022-10-13T08:40:22.711Z,99307.70
2022-10-13T08:42:51.086Z,99308.26
2022-10-13T08:45:43.561Z,99306.72
2022-10-13T08:48:50.406Z,99306.07
2022-10-13T08:51:18.428Z,99308.39
2022-10-13T08:53:46.791Z,99304.82
2022-10-13T08:56:18.033Z,99305.40
2022-10-13T08:58:49.885Z,99303.14
2022-10-13T09:01:23.841Z,99300.73
2022-10-13T09:04:13.160Z,99302.44
2022-10-13T09:06:45.830Z,99300.20
2022-10-13T09:09:16.674Z,99297.90
2022-10-13T09:11:48.421Z,99298.55
2022-10-13T09:14:32.864Z,99295.45
2022-10-13T09:17:23.926Z,99296.20
2022-10-13T09:20:05.113Z,99296.23
2022-10-13T09:22:35.916Z,99292.91
2022-10-13T09:25:06.447Z,99291.37
2022-10-13T09:31:36.158Z,99285.20
2022-10-13T09:34:19.065Z,99287.34
2022-10-13T09:36:56.904Z,99290.91
2022-10-13T09:39:24.967Z,99288.38
2022-10-13T09:42:08.464Z,99290.06
2022-10-13T09:44:35.776Z,99284.75
2022-10-13T09:47:04.005Z,99283.05
2022-10-13T09:49:41.118Z,99283.39
2022-10-13T09:52:14.317Z,99285.10
2022-10-13T09:54:58.561Z,99280.98
2022-10-13T09:57:45.600Z,99277.41
2022-10-13T10:00:19.692Z,99275.09
2022-10-13T10:03:02.773Z,99277.08
2022-10-13T10:05:51.008Z,99267.10
2022-10-13T10:08:28.915Z,99263.75
2022-10-13T10:11:05.549Z,99263.60
2022-10-13T10:13:32.781Z,99263.98
2022-10-13T10:16:38.672Z,99257.28
2022-10-13T10:19:25.893Z,99251.45
2022-10-13T10:22:19.202Z,99244.08
2022-10-13T10:24:54.370Z,99237.15
2022-10-13T10:27:30.131Z,99234.59
2022-10-13T10:30:05.838Z,99229.20
2022-10-13T10:32:55.001Z,99225.73
2022-10-13T10:35:48.737Z,99224.02
2022-10-13T10:38:24.966Z,99220.55
2022-10-13T10:41:22.137Z,99218.84
2022-10-13T10:44:12.971Z,99214.70
2022-10-13T10:46:48.604Z,99209.00
2022-10-13T10:49:29.632Z,99206.77
2022-10-13T10:51:59.931Z,99202.79
2022-10-13T10:54:52.497Z,99204.54
2022-10-13T10:57:24.845Z,99198.02
2022-10-13T11:00:23.761Z,99197.96
2022-10-13T11:03:26.629Z,99192.35
2022-10-13T11:06:23.910Z,99187.08
2022-10-13T11:08:56.043Z,99181.32
2022-10-13T11:11:37.431Z,99176.80
2022-10-13T11:14:15.883Z,99172.27
2022-10-13T11:17:06.565Z,99168.73
2022-10-13T11:19:36.950Z,99169.67
2022-10-13T11:22:05.417Z,99168.01
2022-10-13T11:24:35.054Z,99163.31
2022-10-13T11:27:15.848Z,99158.36
2022-10-13T11:29:44.690Z,99150.10
2022-10-13T11:32:27.398Z,99147.83
2022-10-13T11:35:14.788Z,99143.58
2022-10-13T11:38:07.406Z,99137.55
2022-10-13T11:41:00.670Z,99139.95
2022-10-13T11:44:04.584Z,99134.30
2022-10-13T11:46:59.825Z,99132.83
2022-10-13T11:49:57.735Z,99126.09
2022-10-13T11:52:29.143Z,99128.64
2022-10-13T11:55:12.300Z,99133.00
2022-10-13T11:57:42.837Z,99133.70
2022-10-13T12:00:16.124Z,99133.30
2022-10-13T12:02:50.545Z,99129.05
2022-10-13T12:05:22.221Z,99129.40
2022-10-13T12:07:52.043Z,99126.46
2022-10-13T12:10:30.745Z,99123.14
2022-10-13T12:12:59.008Z,99120.86
2022-10-13T12:15:35.799Z,99118.45
2022-10-13T12:18:23.886Z,99117.95
2022-10-13T12:20:56.644Z,99112.92
2022-10-13T12:23:28.145Z,99117.48
2022-10-13T12:25:59.625Z,99114.45
2022-10-13T12:28:44.742Z,99115.65
2022-10-13T12:31:24.645Z,99114.08
2022-10-13T12:34:02.526Z,99112.17
2022-10-13T12:36:35.116Z,99114.28
2022-10-13T12:39:11.720Z,99111.86
2022-10-13T12:41:44.611Z,99106.70
2022-10-13T12:44:21.239Z,99107.27
2022-10-13T12:46:55.259Z,99107.84
2022-10-13T12:49:25.601Z,99106.58
2022-10-13T12:52:05.172Z,99101.48
2022-10-13T12:54:37.439Z,99100.11
2022-10-13T12:57:34.724Z,99098.04
2022-10-13T13:00:06.270Z,99096.30
2022-10-13T13:02:33.794Z,99092.98
2022-10-13T13:05:02.266Z,99089.70
2022-10-13T13:07:37.024Z,99086.60
2022-10-13T13:10:07.063Z,99082.25
2022-10-13T13:12:35.493Z,99081.21
2022-10-13T13:15:32.844Z,99077.38
2022-10-13T13:18:28.191Z,99075.80
2022-10-13T13:20:56.115Z,99074.07
2022-10-13T13:23:24.337Z,99071.12
2022-10-13T13:26:05.888Z,99066.59
2022-10-13T13:28:33.501Z,99066.77
2022-10-13T13:31:03.997Z,99067.31
2022-10-13T13:33:34.707Z,99065.59
2022-10-13T13:36:02.413Z,99063.16
2022-10-13T13:38:29.723Z,99063.19
2022-10-13T13:41:00.120Z,99065.81
2022-10-13T13:43:31.344Z,99061.96
2022-10-13T13:45:58.771Z,99062.48
2022-10-13T13:48:26.416Z,99059.52
2022-10-13T13:50:53.915Z,99057.93
2022-10-13T13:53:21.641Z,99062.13
2022-10-13T13:55:51.917Z,99061.24
2022-10-13T13:58:20.411Z,99056.38
2022-10-13T14:00:57.648Z,99055.71
2022-10-13T14:03:27.452Z,99052.75
2022-10-13T14:05:54.862Z,99053.81
2022-10-13T14:08:25.594Z,99054.99
2022-10-13T14:10:53.730Z,99055.33
2022-10-13T14:13:21.177Z,99053.77
2022-10-13T14:16:02.382Z,99052.03
2022-10-13T14:18:31.453Z,99049.81
2022-10-13T14:20:59.758Z,99048.80
2022-10-13T14:23:27.015Z,99050.61
2022-10-13T14:25:54.623Z,99043.69
2022-10-13T14:28:23.060Z,99045.33
2022-10-13T14:30:50.561Z,99047.48
2022-10-13T14:33:19.491Z,99041.04
2022-10-13T14:35:46.672Z,99042.08
2022-10-13T14:38:16.362Z,99038.45
2022-10-13T14:40:45.114Z,99038.48
2022-10-13T14:43:12.310Z,99039.44
2022-10-13T14:45:39.880Z,99037.21
2022-10-13T14:48:11.535Z,99037.78
2022-10-13T14:50:39.072Z,99035.38
2022-10-13T14:53:09.281Z,99034.17
2022-10-13T14:55:36.626Z,99031.94
2022-10-13T14:58:03.757Z,99028.10
2022-10-13T15:00:31.352Z,99030.75
2022-10-13T15:02:58.724Z,99029.55
2022-10-13T15:05:26.145Z,99031.69
2022-10-13T15:07:53.511Z,99029.46
2022-10-13T15:10:20.774Z,99028.80
2022-10-13T15:12:48.280Z,99026.76
2022-10-13T15:15:15.980Z,99025.06
2022-10-13T15:17:43.302Z,99025.28
2022-10-13T15:20:10.618Z,99024.66
2022-10-13T15:22:37.997Z,99023.31
2022-10-13T15:25:11.510Z,99019.17
2022-10-13T15:27:41.828Z,99020.64
2022-10-13T15:30:09.873Z,99020.16
2022-10-13T15:32:37.309Z,99017.73
2022-10-13T15:35:05.950Z,99016.17
2022-10-13T15:37:34.585Z,99012.89
2022-10-13T15:40:01.737Z,99013.80
2022-10-13T15:42:29.522Z,99012.27
2022-10-13T15:45:09.183Z,99010.40
2022-10-13T15:47:37.885Z,99012.91
2022-10-13T15:50:05.288Z,99012.80
2022-10-13T15:52:37.368Z,99012.48
2022-10-13T15:55:06.119Z,99014.80
2022-10-13T15:57:33.425Z,99012.92
2022-10-13T16:00:00.662Z,99014.54
2022-10-13T16:02:36.010Z,99012.48
2022-10-13T16:05:05.052Z,99012.34
2022-10-13T16:07:33.109Z,99010.98
2022-10-13T16:10:01.648Z,99010.14
2022-10-13T16:12:29.194Z,99010.17
2022-10-13T16:14:56.944Z,99014.01
2022-10-13T16:17:24.441Z,99016.98
2022-10-13T16:19:51.660Z,99019.27
2022-10-13T16:22:19.479Z,99024.17
2022-10-13T16:24:47.266Z,99024.55
2022-10-13T16:27:14.676Z,99022.13
2022-10-13T16:29:41.822Z,99020.57
2022-10-13T16:32:08.963Z,99020.58
2022-10-13T16:34:36.277Z,99017.45
2022-10-13T16:37:03.990Z,99019.38
2022-10-13T16:39:31.344Z,99015.90
2022-10-13T16:41:58.625Z,99009.82
2022-10-13T16:44:26.532Z,99010.18
2022-10-13T16:46:56.582Z,99008.95
2022-10-13T16:49:23.806Z,99007.90
2022-10-13T16:51:51.063Z,99008.80
2022-10-13T16:54:18.461Z,99008.80
2022-10-13T16:56:46.594Z,99010.54
2022-10-13T16:59:14.863Z,99009.33
2022-10-13T17:01:42.465Z,99003.75
2022-10-13T17:04:09.667Z,99002.88
2022-10-13T17:06:39.208Z,99000.79
2022-10-13T17:09:06.984Z,99001.48
2022-10-13T17:11:35.315Z,99003.75
2022-10-13T17:14:05.317Z,99007.93
2022-10-13T17:16:33.382Z,99009.16
2022-10-13T17:19:00.935Z,99006.90
2022-10-13T17:21:34.202Z,99002.38
2022-10-13T17:24:01.572Z,98999.91
2022-10-13T17:26:28.651Z,98997.98
2022-10-13T17:28:56.681Z,98998.50
2022-10-13T17:31:24.542Z,99002.33
2022-10-13T17:33:52.906Z,99001.10
2022-10-13T17:36:29.090Z,99000.73
2022-10-13T17:39:01.179Z,99003.50
2022-10-13T17:41:29.522Z,99001.57
2022-10-13T17:43:56.706Z,98999.83
2022-10-13T17:46:42.332Z,98997.90
2022-10-13T17:49:11.707Z,98995.64
2022-10-13T17:51:40.713Z,98994.41
2022-10-13T17:54:15.259Z,98994.41
2022-10-13T17:56:45.538Z,98994.41
2022-10-13T17:59:14.181Z,98995.97
2022-10-13T18:01:42.505Z,98996.15
2022-10-13T18:04:19.806Z,98998.95
2022-10-13T18:06:47.147Z,98995.66
2022-10-13T18:09:17.905Z,98995.50
2022-10-13T18:11:50.572Z,98998.11
2022-10-13T18:14:24.332Z,98999.86
2022-10-13T18:16:52.417Z,99000.91
2022-10-13T18:19:20.839Z,98999.17
2022-10-13T18:21:48.601Z,99001.95
2022-10-13T18:24:16.197Z,98996.38
2022-10-13T18:26:43.320Z,98997.09
2022-10-13T18:29:12.110Z,98995.88
2022-10-13T18:31:41.058Z,98999.20
2022-10-13T18:34:13.327Z,99000.59
2022-10-13T18:36:50.340Z,98999.21
2022-10-13T18:39:20.386Z,98999.41
2022-10-13T18:41:49.621Z,99000.45
2022-10-13T18:44:18.376Z,99000.62
2022-10-13T18:46:49.313Z,98996.45
2022-10-13T18:49:22.997Z,98992.09
2022-10-13T18:51:51.506Z,98993.66
2022-10-13T18:54:19.288Z,98991.92
2022-10-13T18:56:46.624Z,98987.39
2022-10-13T18:59:14.101Z,98987.73
2022-10-13T19:01:43.935Z,98987.90
2022-10-13T19:04:16.977Z,98988.77
2022-10-13T19:06:44.714Z,98988.42
2022-10-13T19:09:14.396Z,98992.26
2022-10-13T19:11:42.293Z,98991.39
2022-10-13T19:14:12.813Z,98995.05
2022-10-13T19:16:42.344Z,98998.35
2022-10-13T19:19:10.640Z,99000.45
2022-10-13T19:21:39.160Z,99003.77
2022-10-13T19:24:07.426Z,99001.64
2022-10-13T19:26:35.922Z,98999.38
2022-10-13T19:29:12.510Z,98998.32
2022-10-13T19:31:41.172Z,98992.58
2022-10-13T19:34:10.674Z,98995.19
2022-10-13T19:36:41.197Z,98996.40
2022-10-13T19:39:29.310Z,98997.44
2022-10-13T19:41:57.543Z,98998.80
2022-10-13T19:44:25.549Z,98999.12
2022-10-13T19:46:53.892Z,98995.78
2022-10-13T19:49:24.869Z,98992.11
2022-10-13T19:51:54.002Z,98991.79
2022-10-13T19:54:22.798Z,98989.88
2022-10-13T19:56:50.716Z,98984.66
2022-10-13T19:59:18.496Z,98974.94
2022-10-13T20:01:46.144Z,98978.41
2022-10-13T20:04:15.720Z,98984.15
2022-10-13T20:06:44.443Z,98988.15
2022-10-13T20:09:12.413Z,98985.20
2022-10-13T20:11:39.808Z,98982.94
2022-10-13T20:14:07.371Z,98979.63
2022-10-13T20:16:37.726Z,98979.80
2022-10-13T20:19:04.975Z,98978.42
2022-10-13T20:21:32.792Z,98979.80
2022-10-13T20:24:00.864Z,98976.67
2022-10-13T20:26:28.840Z,98977.88
2022-10-13T20:28:57.737Z,98982.23
2022-10-13T20:31:26.819Z,98980.64
2022-10-13T20:33:56.303Z,98980.27
2022-10-13T20:36:27.123Z,98980.09
2022-10-13T20:38:55.037Z,98977.48
2022-10-13T20:41:28.137Z,98977.84
2022-10-13T20:43:57.878Z,98978.36
2022-10-13T20:46:26.050Z,98983.07
2022-10-13T20:49:11.584Z,98981.51
2022-10-13T20:51:42.610Z,98978.20
2022-10-13T20:54:12.825Z,98979.95
2022-10-13T20:56:40.574Z,98975.77
2022-10-13T20:59:10.635Z,98975.42
2022-10-13T21:01:38.569Z,98977.86
2022-10-13T21:04:06.644Z,98977.86
2022-10-13T21:06:35.355Z,98983.24
2022-10-13T21:09:05.669Z,98982.88
2022-10-13T21:11:35.033Z,98978.70
2022-10-13T21:14:06.786Z,98979.94
2022-10-13T21:16:37.366Z,98978.02
2022-10-13T21:19:10.531Z,98978.73
2022-10-13T21:21:38.743Z,98980.83
2022-10-13T21:24:07.452Z,98976.47
2022-10-13T21:26:36.361Z,98974.73
2022-10-13T21:29:04.963Z,98971.94
2022-10-13T21:31:35.217Z,98967.75
2022-10-13T21:34:03.887Z,98965.84
2022-10-13T21:36:33.224Z,98959.23
2022-10-13T21:39:04.075Z,98961.80
2022-10-13T21:41:34.680Z,98961.42
2022-10-13T21:44:02.779Z,98961.04
2022-10-13T21:46:33.684Z,98963.46
2022-10-13T21:49:04.744Z,98964.14
2022-10-13T21:51:37.377Z,98963.28
2022-10-13T21:54:09.814Z,98956.17
2022-10-13T21:56:39.067Z,98956.55
2022-10-13T21:59:07.087Z,98959.16
2022-10-13T22:01:34.879Z,98958.48
2022-10-13T22:04:02.748Z,98956.20
2022-10-13T22:06:31.753Z,98958.10
2022-10-13T22:09:01.896Z,98955.30
2022-10-13T22:11:30.585Z,98958.27
2022-10-13T22:13:59.047Z,98954.95
2022-10-13T22:16:33.984Z,98953.40
2022-10-13T22:19:01.551Z,98949.41
2022-10-13T22:21:31.983Z,98950.65
2022-10-13T22:24:00.555Z,98948.92
2022-10-13T22:26:30.531Z,98948.40
2022-10-13T22:28:59.806Z,98942.66
2022-10-13T22:31:28.475Z,98947.52
2022-10-13T22:33:55.816Z,98945.60
2022-10-13T22:36:24.877Z,98946.13
2022-10-13T22:38:54.720Z,98946.14
2022-10-13T22:41:21.955Z,98947.52
2022-10-13T22:43:54.762Z,98947.52
2022-10-13T22:46:29.097Z,98944.92
2022-10-13T22:48:57.091Z,98941.95
2022-10-13T22:51:26.122Z,98940.73
2022-10-13T22:53:54.029Z,98938.98
2022-10-13T22:56:23.914Z,98940.91
2022-10-13T22:59:05.106Z,98939.54
2022-10-13T23:01:33.737Z,98938.33
2022-10-13T23:04:01.092Z,98938.84
2022-10-13T23:06:30.730Z,98939.55
2022-10-13T23:09:06.567Z,98939.38
2022-10-13T23:11:35.549Z,98941.48
2022-10-13T23:14:06.553Z,98940.96
2022-10-13T23:16:35.188Z,98945.33
2022-10-13T23:19:04.163Z,98942.90
2022-10-13T23:21:32.355Z,98938.56
2022-10-13T23:24:02.881Z,98935.43
2022-10-13T23:26:31.982Z,98932.28
2022-10-13T23:29:00.857Z,98934.02
2022-10-13T23:31:28.313Z,98931.59
2022-10-13T23:33:56.827Z,98926.18
2022-10-13T23:36:27.026Z,98926.01
2022-10-13T23:38:59.274Z,98922.88
2022-10-13T23:41:28.296Z,98919.57
2022-10-13T23:43:55.644Z,98918.17
2022-10-13T23:46:23.833Z,98918.35
2022-10-13T23:48:52.231Z,98914.88
2022-10-13T23:51:22.810Z,98916.10
2022-10-13T23:53:51.178Z,98917.13
2022-10-13T23:56:18.986Z,98918.36
2022-10-13T23:58:47.119Z,98915.23
